sensor_id;sensor_type;location;lat;lon;timestamp;P1;durP1;ratioP1;P2;durP2;ratioP2
32393;SDS011;18853;45.426;9.206;2023-07-20T00:01:57;13.77;;;6.55;;
32393;SDS011;18853;45.426;9.206;2023-07-20T00:04:23;12.13;;;6.65;;
32393;SDS011;18853;45.426;9.206;2023-07-20T00:06:49;16.70;;;7.28;;
32393;SDS011;18853;45.426;9.206;2023-07-20T00:09:14;12.23;;;6.13;;
32393;SDS011;18853;45.426;9.206;2023-07-20T00:11:44;10.15;;;6.00;;
32393;SDS011;18853;45.426;9.206;2023-07-20T00:14:14;9.52;;;5.88;;
32393;SDS011;18853;45.426;9.206;2023-07-20T00:16:40;12.13;;;6.18;;
32393;SDS011;18853;45.426;9.206;2023-07-20T00:19:05;12.18;;;6.95;;
32393;SDS011;18853;45.426;9.206;2023-07-20T00:21:32;16.77;;;6.40;;
32393;SDS011;18853;45.426;9.206;2023-07-20T00:23:57;12.70;;;5.88;;
32393;SDS011;18853;45.426;9.206;2023-07-20T00:26:23;12.05;;;5.68;;
32393;SDS011;18853;45.426;9.206;2023-07-20T00:28:49;10.63;;;5.38;;
32393;SDS011;18853;45.426;9.206;2023-07-20T00:31:16;15.43;;;5.45;;
32393;SDS011;18853;45.426;9.206;2023-07-20T00:33:42;10.38;;;5.10;;
32393;SDS011;18853;45.426;9.206;2023-07-20T00:36:08;13.18;;;5.65;;
32393;SDS011;18853;45.426;9.206;2023-07-20T00:38:34;13.50;;;5.50;;
32393;SDS011;18853;45.426;9.206;2023-07-20T00:40:59;12.52;;;5.75;;
32393;SDS011;18853;45.426;9.206;2023-07-20T00:43:25;12.93;;;5.40;;
32393;SDS011;18853;45.426;9.206;2023-07-20T00:45:51;10.65;;;5.45;;
32393;SDS011;18853;45.426;9.206;2023-07-20T00:48:16;9.18;;;5.28;;
32393;SDS011;18853;45.426;9.206;2023-07-20T00:50:42;11.82;;;5.63;;
32393;SDS011;18853;45.426;9.206;2023-07-20T00:53:09;8.25;;;5.03;;
32393;SDS011;18853;45.426;9.206;2023-07-20T00:55:35;9.73;;;5.60;;
32393;SDS011;18853;45.426;9.206;2023-07-20T00:58:01;10.95;;;5.53;;
32393;SDS011;18853;45.426;9.206;2023-07-20T01:00:27;9.60;;;5.57;;
32393;SDS011;18853;45.426;9.206;2023-07-20T01:02:52;13.60;;;5.63;;
32393;SDS011;18853;45.426;9.206;2023-07-20T01:05:18;9.65;;;5.47;;
32393;SDS011;18853;45.426;9.206;2023-07-20T01:07:55;10.90;;;5.38;;
32393;SDS011;18853;45.426;9.206;2023-07-20T01:13:06;7.70;;;5.03;;
32393;SDS011;18853;45.426;9.206;2023-07-20T01:15:34;9.88;;;5.93;;
32393;SDS011;18853;45.426;9.206;2023-07-20T01:18:00;9.73;;;5.18;;
32393;SDS011;18853;45.426;9.206;2023-07-20T01:20:30;7.80;;;5.07;;
32393;SDS011;18853;45.426;9.206;2023-07-20T01:31:33;11.20;;;5.13;;
32393;SDS011;18853;45.426;9.206;2023-07-20T01:34:02;12.00;;;5.53;;
32393;SDS011;18853;45.426;9.206;2023-07-20T01:36:29;10.15;;;5.38;;
32393;SDS011;18853;45.426;9.206;2023-07-20T01:38:58;12.15;;;5.72;;
32393;SDS011;18853;45.426;9.206;2023-07-20T01:41:24;13.82;;;6.13;;
32393;SDS011;18853;45.426;9.206;2023-07-20T01:43:50;14.93;;;6.72;;
32393;SDS011;18853;45.426;9.206;2023-07-20T01:46:15;11.18;;;5.80;;
32393;SDS011;18853;45.426;9.206;2023-07-20T01:48:41;9.30;;;6.30;;
32393;SDS011;18853;45.426;9.206;2023-07-20T01:51:07;11.50;;;5.93;;
32393;SDS011;18853;45.426;9.206;2023-07-20T01:53:33;10.88;;;6.35;;
32393;SDS011;18853;45.426;9.206;2023-07-20T01:55:59;9.15;;;5.88;;
32393;SDS011;18853;45.426;9.206;2023-07-20T01:58:24;11.32;;;5.88;;
32393;SDS011;18853;45.426;9.206;2023-07-20T02:00:50;8.98;;;6.47;;
32393;SDS011;18853;45.426;9.206;2023-07-20T02:03:16;11.27;;;6.25;;
32393;SDS011;18853;45.426;9.206;2023-07-20T02:05:42;9.20;;;5.65;;
32393;SDS011;18853;45.426;9.206;2023-07-20T02:08:08;11.88;;;6.18;;
32393;SDS011;18853;45.426;9.206;2023-07-20T02:10:34;12.10;;;6.38;;
32393;SDS011;18853;45.426;9.206;2023-07-20T02:13:00;13.20;;;6.90;;
32393;SDS011;18853;45.426;9.206;2023-07-20T02:15:26;10.20;;;6.20;;
32393;SDS011;18853;45.426;9.206;2023-07-20T02:17:52;10.68;;;6.25;;
32393;SDS011;18853;45.426;9.206;2023-07-20T02:20:18;16.10;;;7.45;;
32393;SDS011;18853;45.426;9.206;2023-07-20T02:22:44;12.45;;;6.68;;
32393;SDS011;18853;45.426;9.206;2023-07-20T02:25:10;11.07;;;6.47;;
32393;SDS011;18853;45.426;9.206;2023-07-20T02:27:36;12.35;;;7.13;;
32393;SDS011;18853;45.426;9.206;2023-07-20T02:30:03;11.38;;;7.05;;
32393;SDS011;18853;45.426;9.206;2023-07-20T02:32:30;13.30;;;7.25;;
32393;SDS011;18853;45.426;9.206;2023-07-20T02:34:56;11.95;;;7.32;;
32393;SDS011;18853;45.426;9.206;2023-07-20T02:37:23;14.70;;;7.90;;
32393;SDS011;18853;45.426;9.206;2023-07-20T02:39:49;10.65;;;7.15;;
32393;SDS011;18853;45.426;9.206;2023-07-20T02:42:15;11.02;;;7.72;;
32393;SDS011;18853;45.426;9.206;2023-07-20T02:44:40;11.20;;;7.32;;
32393;SDS011;18853;45.426;9.206;2023-07-20T02:47:06;11.48;;;7.25;;
32393;SDS011;18853;45.426;9.206;2023-07-20T02:49:32;10.32;;;6.95;;
32393;SDS011;18853;45.426;9.206;2023-07-20T02:51:57;12.82;;;7.55;;
32393;SDS011;18853;45.426;9.206;2023-07-20T02:54:23;10.90;;;6.95;;
32393;SDS011;18853;45.426;9.206;2023-07-20T02:56:49;12.25;;;8.07;;
32393;SDS011;18853;45.426;9.206;2023-07-20T02:59:14;13.93;;;7.05;;
32393;SDS011;18853;45.426;9.206;2023-07-20T03:01:40;15.57;;;7.78;;
32393;SDS011;18853;45.426;9.206;2023-07-20T03:04:09;11.93;;;7.25;;
32393;SDS011;18853;45.426;9.206;2023-07-20T03:06:37;10.90;;;7.43;;
32393;SDS011;18853;45.426;9.206;2023-07-20T03:09:03;11.00;;;7.82;;
32393;SDS011;18853;45.426;9.206;2023-07-20T03:11:29;12.90;;;7.90;;
32393;SDS011;18853;45.426;9.206;2023-07-20T03:13:57;10.02;;;6.88;;
32393;SDS011;18853;45.426;9.206;2023-07-20T03:16:23;10.77;;;6.93;;
32393;SDS011;18853;45.426;9.206;2023-07-20T03:18:50;10.55;;;6.90;;
32393;SDS011;18853;45.426;9.206;2023-07-20T03:21:16;9.82;;;6.55;;
32393;SDS011;18853;45.426;9.206;2023-07-20T03:23:41;12.82;;;7.38;;
32393;SDS011;18853;45.426;9.206;2023-07-20T03:26:08;10.70;;;6.72;;
32393;SDS011;18853;45.426;9.206;2023-07-20T03:28:34;10.65;;;7.20;;
32393;SDS011;18853;45.426;9.206;2023-07-20T03:31:00;12.40;;;7.18;;
32393;SDS011;18853;45.426;9.206;2023-07-20T03:33:26;9.85;;;6.70;;
32393;SDS011;18853;45.426;9.206;2023-07-20T03:35:53;12.63;;;7.32;;
32393;SDS011;18853;45.426;9.206;2023-07-20T03:38:20;10.57;;;6.45;;
32393;SDS011;18853;45.426;9.206;2023-07-20T03:40:53;9.35;;;6.53;;
32393;SDS011;18853;45.426;9.206;2023-07-20T03:43:20;10.32;;;7.10;;
32393;SDS011;18853;45.426;9.206;2023-07-20T03:45:50;11.88;;;7.80;;
32393;SDS011;18853;45.426;9.206;2023-07-20T03:48:16;10.32;;;7.85;;
32393;SDS011;18853;45.426;9.206;2023-07-20T03:50:44;14.38;;;8.15;;
32393;SDS011;18853;45.426;9.206;2023-07-20T03:53:10;12.57;;;8.40;;
32393;SDS011;18853;45.426;9.206;2023-07-20T03:55:37;11.68;;;7.90;;
32393;SDS011;18853;45.426;9.206;2023-07-20T03:58:03;12.98;;;9.05;;
32393;SDS011;18853;45.426;9.206;2023-07-20T04:00:28;15.00;;;8.98;;
32393;SDS011;18853;45.426;9.206;2023-07-20T04:02:54;11.40;;;8.27;;
32393;SDS011;18853;45.426;9.206;2023-07-20T04:05:20;12.93;;;8.60;;
32393;SDS011;18853;45.426;9.206;2023-07-20T04:07:45;15.07;;;8.43;;
32393;SDS011;18853;45.426;9.206;2023-07-20T04:10:11;11.70;;;7.68;;
32393;SDS011;18853;45.426;9.206;2023-07-20T04:12:37;10.43;;;7.47;;
32393;SDS011;18853;45.426;9.206;2023-07-20T04:15:03;11.43;;;8.00;;
32393;SDS011;18853;45.426;9.206;2023-07-20T04:17:29;12.73;;;8.30;;
32393;SDS011;18853;45.426;9.206;2023-07-20T04:19:55;13.38;;;8.68;;
32393;SDS011;18853;45.426;9.206;2023-07-20T04:22:20;11.75;;;8.40;;
32393;SDS011;18853;45.426;9.206;2023-07-20T04:24:46;12.25;;;8.45;;
32393;SDS011;18853;45.426;9.206;2023-07-20T04:27:12;12.98;;;8.50;;
32393;SDS011;18853;45.426;9.206;2023-07-20T04:29:38;14.73;;;10.05;;
32393;SDS011;18853;45.426;9.206;2023-07-20T04:32:03;13.23;;;8.95;;
32393;SDS011;18853;45.426;9.206;2023-07-20T04:34:29;12.77;;;7.90;;
32393;SDS011;18853;45.426;9.206;2023-07-20T04:36:55;11.68;;;7.82;;
32393;SDS011;18853;45.426;9.206;2023-07-20T04:39:21;15.45;;;9.05;;
32393;SDS011;18853;45.426;9.206;2023-07-20T04:41:47;12.93;;;8.77;;
32393;SDS011;18853;45.426;9.206;2023-07-20T04:44:13;14.13;;;8.75;;
32393;SDS011;18853;45.426;9.206;2023-07-20T04:46:39;15.32;;;8.20;;
32393;SDS011;18853;45.426;9.206;2023-07-20T04:49:05;15.98;;;11.70;;
32393;SDS011;18853;45.426;9.206;2023-07-20T04:51:31;15.30;;;11.35;;
32393;SDS011;18853;45.426;9.206;2023-07-20T04:53:57;10.90;;;7.50;;
32393;SDS011;18853;45.426;9.206;2023-07-20T04:56:24;16.20;;;11.50;;
32393;SDS011;18853;45.426;9.206;2023-07-20T04:58:49;12.70;;;8.27;;
32393;SDS011;18853;45.426;9.206;2023-07-20T05:01:15;69.22;;;52.42;;
32393;SDS011;18853;45.426;9.206;2023-07-20T05:03:41;59.85;;;47.30;;
32393;SDS011;18853;45.426;9.206;2023-07-20T05:06:07;41.45;;;30.73;;
32393;SDS011;18853;45.426;9.206;2023-07-20T05:08:32;33.38;;;25.10;;
32393;SDS011;18853;45.426;9.206;2023-07-20T05:11:01;15.30;;;9.18;;
32393;SDS011;18853;45.426;9.206;2023-07-20T05:13:27;13.05;;;8.60;;
32393;SDS011;18853;45.426;9.206;2023-07-20T05:15:52;11.60;;;7.70;;
32393;SDS011;18853;45.426;9.206;2023-07-20T05:18:19;12.88;;;8.18;;
32393;SDS011;18853;45.426;9.206;2023-07-20T05:20:49;13.88;;;8.80;;
32393;SDS011;18853;45.426;9.206;2023-07-20T05:23:18;11.77;;;7.57;;
32393;SDS011;18853;45.426;9.206;2023-07-20T05:25:56;13.43;;;7.68;;
32393;SDS011;18853;45.426;9.206;2023-07-20T05:28:23;10.57;;;7.38;;
32393;SDS011;18853;45.426;9.206;2023-07-20T05:30:53;13.90;;;7.47;;
32393;SDS011;18853;45.426;9.206;2023-07-20T05:33:19;10.05;;;7.07;;
32393;SDS011;18853;45.426;9.206;2023-07-20T05:35:45;16.23;;;7.32;;
32393;SDS011;18853;45.426;9.206;2023-07-20T05:38:11;12.70;;;7.18;;
32393;SDS011;18853;45.426;9.206;2023-07-20T05:40:38;12.23;;;6.80;;
32393;SDS011;18853;45.426;9.206;2023-07-20T05:43:05;14.80;;;9.50;;
32393;SDS011;18853;45.426;9.206;2023-07-20T05:45:31;12.75;;;8.93;;
32393;SDS011;18853;45.426;9.206;2023-07-20T05:47:56;13.25;;;8.60;;
32393;SDS011;18853;45.426;9.206;2023-07-20T05:50:22;16.15;;;11.85;;
32393;SDS011;18853;45.426;9.206;2023-07-20T05:52:48;13.32;;;8.68;;
32393;SDS011;18853;45.426;9.206;2023-07-20T05:55:14;11.15;;;8.32;;
32393;SDS011;18853;45.426;9.206;2023-07-20T05:57:40;13.98;;;8.13;;
32393;SDS011;18853;45.426;9.206;2023-07-20T06:00:08;15.52;;;9.85;;
32393;SDS011;18853;45.426;9.206;2023-07-20T06:02:34;13.55;;;8.07;;
32393;SDS011;18853;45.426;9.206;2023-07-20T06:05:00;11.10;;;8.02;;
32393;SDS011;18853;45.426;9.206;2023-07-20T06:07:26;13.65;;;9.57;;
32393;SDS011;18853;45.426;9.206;2023-07-20T06:09:51;12.38;;;8.65;;
32393;SDS011;18853;45.426;9.206;2023-07-20T06:12:17;12.32;;;9.68;;
32393;SDS011;18853;45.426;9.206;2023-07-20T06:14:43;16.25;;;9.32;;
32393;SDS011;18853;45.426;9.206;2023-07-20T06:17:09;13.88;;;8.52;;
32393;SDS011;18853;45.426;9.206;2023-07-20T06:19:34;12.48;;;8.50;;
32393;SDS011;18853;45.426;9.206;2023-07-20T06:22:00;12.38;;;8.48;;
32393;SDS011;18853;45.426;9.206;2023-07-20T06:24:26;12.50;;;9.43;;
32393;SDS011;18853;45.426;9.206;2023-07-20T06:26:52;12.90;;;8.90;;
32393;SDS011;18853;45.426;9.206;2023-07-20T06:29:18;12.43;;;8.02;;
32393;SDS011;18853;45.426;9.206;2023-07-20T06:31:44;9.75;;;7.57;;
32393;SDS011;18853;45.426;9.206;2023-07-20T06:34:10;11.60;;;7.70;;
32393;SDS011;18853;45.426;9.206;2023-07-20T06:36:35;18.35;;;7.93;;
32393;SDS011;18853;45.426;9.206;2023-07-20T06:39:01;16.05;;;8.23;;
32393;SDS011;18853;45.426;9.206;2023-07-20T06:41:27;11.48;;;8.07;;
32393;SDS011;18853;45.426;9.206;2023-07-20T06:43:53;12.98;;;8.35;;
32393;SDS011;18853;45.426;9.206;2023-07-20T06:46:23;13.07;;;9.63;;
32393;SDS011;18853;45.426;9.206;2023-07-20T06:48:51;12.30;;;8.13;;
32393;SDS011;18853;45.426;9.206;2023-07-20T06:51:18;12.82;;;9.07;;
32393;SDS011;18853;45.426;9.206;2023-07-20T06:53:44;12.88;;;8.55;;
32393;SDS011;18853;45.426;9.206;2023-07-20T06:56:10;14.40;;;9.27;;
32393;SDS011;18853;45.426;9.206;2023-07-20T06:58:36;16.13;;;8.40;;
32393;SDS011;18853;45.426;9.206;2023-07-20T07:01:08;14.23;;;8.45;;
32393;SDS011;18853;45.426;9.206;2023-07-20T07:03:33;11.15;;;8.63;;
32393;SDS011;18853;45.426;9.206;2023-07-20T07:05:59;13.85;;;8.88;;
32393;SDS011;18853;45.426;9.206;2023-07-20T07:08:25;15.48;;;8.13;;
32393;SDS011;18853;45.426;9.206;2023-07-20T07:10:51;15.85;;;9.55;;
32393;SDS011;18853;45.426;9.206;2023-07-20T07:13:17;12.73;;;7.95;;
32393;SDS011;18853;45.426;9.206;2023-07-20T07:15:44;12.60;;;7.53;;
32393;SDS011;18853;45.426;9.206;2023-07-20T07:18:10;12.38;;;8.38;;
32393;SDS011;18853;45.426;9.206;2023-07-20T07:20:36;11.48;;;7.78;;
32393;SDS011;18853;45.426;9.206;2023-07-20T07:23:01;15.70;;;8.98;;
32393;SDS011;18853;45.426;9.206;2023-07-20T07:25:27;13.35;;;8.60;;
32393;SDS011;18853;45.426;9.206;2023-07-20T07:27:53;15.55;;;9.38;;
32393;SDS011;18853;45.426;9.206;2023-07-20T07:30:21;12.70;;;8.65;;
32393;SDS011;18853;45.426;9.206;2023-07-20T07:32:46;16.08;;;9.45;;
32393;SDS011;18853;45.426;9.206;2023-07-20T07:35:12;15.82;;;9.10;;
32393;SDS011;18853;45.426;9.206;2023-07-20T07:37:38;13.05;;;8.32;;
32393;SDS011;18853;45.426;9.206;2023-07-20T07:40:04;13.02;;;9.15;;
32393;SDS011;18853;45.426;9.206;2023-07-20T07:42:31;14.80;;;8.93;;
32393;SDS011;18853;45.426;9.206;2023-07-20T07:44:57;12.77;;;9.80;;
32393;SDS011;18853;45.426;9.206;2023-07-20T07:47:22;13.25;;;9.50;;
32393;SDS011;18853;45.426;9.206;2023-07-20T07:49:48;15.40;;;9.93;;
32393;SDS011;18853;45.426;9.206;2023-07-20T07:52:15;14.30;;;8.52;;
32393;SDS011;18853;45.426;9.206;2023-07-20T07:54:40;17.85;;;10.20;;
32393;SDS011;18853;45.426;9.206;2023-07-20T07:57:06;13.25;;;8.27;;
32393;SDS011;18853;45.426;9.206;2023-07-20T07:59:32;16.83;;;8.80;;
32393;SDS011;18853;45.426;9.206;2023-07-20T08:02:01;20.95;;;9.13;;
32393;SDS011;18853;45.426;9.206;2023-07-20T08:04:29;13.32;;;8.40;;
32393;SDS011;18853;45.426;9.206;2023-07-20T08:06:55;15.20;;;9.00;;
32393;SDS011;18853;45.426;9.206;2023-07-20T08:09:21;11.80;;;7.63;;
32393;SDS011;18853;45.426;9.206;2023-07-20T08:11:47;12.68;;;8.48;;
32393;SDS011;18853;45.426;9.206;2023-07-20T08:14:13;12.25;;;8.45;;
32393;SDS011;18853;45.426;9.206;2023-07-20T08:16:39;13.10;;;7.72;;
32393;SDS011;18853;45.426;9.206;2023-07-20T08:19:04;14.25;;;8.30;;
32393;SDS011;18853;45.426;9.206;2023-07-20T08:21:30;11.88;;;8.82;;
32393;SDS011;18853;45.426;9.206;2023-07-20T08:23:56;13.55;;;8.95;;
32393;SDS011;18853;45.426;9.206;2023-07-20T08:26:22;12.43;;;7.95;;
32393;SDS011;18853;45.426;9.206;2023-07-20T08:28:48;13.30;;;7.95;;
32393;SDS011;18853;45.426;9.206;2023-07-20T08:31:14;11.80;;;7.53;;
32393;SDS011;18853;45.426;9.206;2023-07-20T08:33:40;10.40;;;7.80;;
32393;SDS011;18853;45.426;9.206;2023-07-20T08:36:06;14.38;;;7.82;;
32393;SDS011;18853;45.426;9.206;2023-07-20T08:38:33;12.15;;;7.25;;
32393;SDS011;18853;45.426;9.206;2023-07-20T08:40:59;12.07;;;7.88;;
32393;SDS011;18853;45.426;9.206;2023-07-20T08:43:26;13.60;;;7.90;;
32393;SDS011;18853;45.426;9.206;2023-07-20T08:45:56;13.23;;;8.45;;
32393;SDS011;18853;45.426;9.206;2023-07-20T08:48:22;11.85;;;7.38;;
32393;SDS011;18853;45.426;9.206;2023-07-20T08:50:50;10.70;;;7.25;;
32393;SDS011;18853;45.426;9.206;2023-07-20T08:53:18;13.55;;;8.55;;
32393;SDS011;18853;45.426;9.206;2023-07-20T08:55:44;16.75;;;7.55;;
32393;SDS011;18853;45.426;9.206;2023-07-20T08:58:12;11.48;;;7.60;;
32393;SDS011;18853;45.426;9.206;2023-07-20T09:00:39;11.18;;;7.75;;
32393;SDS011;18853;45.426;9.206;2023-07-20T09:03:06;13.25;;;8.13;;
32393;SDS011;18853;45.426;9.206;2023-07-20T09:05:33;12.68;;;7.85;;
32393;SDS011;18853;45.426;9.206;2023-07-20T09:08:00;10.85;;;7.28;;
32393;SDS011;18853;45.426;9.206;2023-07-20T09:10:28;13.65;;;8.23;;
32393;SDS011;18853;45.426;9.206;2023-07-20T09:12:54;10.25;;;7.80;;
32393;SDS011;18853;45.426;9.206;2023-07-20T09:15:21;13.32;;;7.78;;
32393;SDS011;18853;45.426;9.206;2023-07-20T09:17:48;16.25;;;8.68;;
32393;SDS011;18853;45.426;9.206;2023-07-20T09:20:15;13.98;;;8.35;;
32393;SDS011;18853;45.426;9.206;2023-07-20T09:22:43;17.25;;;8.85;;
32393;SDS011;18853;45.426;9.206;2023-07-20T09:25:13;11.75;;;8.50;;
32393;SDS011;18853;45.426;9.206;2023-07-20T09:27:40;14.98;;;7.90;;
32393;SDS011;18853;45.426;9.206;2023-07-20T09:30:13;13.98;;;8.60;;
32393;SDS011;18853;45.426;9.206;2023-07-20T09:35:12;12.02;;;8.13;;
32393;SDS011;18853;45.426;9.206;2023-07-20T09:40:29;10.52;;;7.35;;
32393;SDS011;18853;45.426;9.206;2023-07-20T09:42:54;12.73;;;8.30;;
32393;SDS011;18853;45.426;9.206;2023-07-20T09:45:29;12.57;;;8.38;;
32393;SDS011;18853;45.426;9.206;2023-07-20T09:48:04;11.48;;;7.95;;
32393;SDS011;18853;45.426;9.206;2023-07-20T09:50:32;15.25;;;7.93;;
32393;SDS011;18853;45.426;9.206;2023-07-20T09:52:58;10.85;;;7.85;;
32393;SDS011;18853;45.426;9.206;2023-07-20T09:55:26;10.38;;;7.05;;
32393;SDS011;18853;45.426;9.206;2023-07-20T09:57:52;11.15;;;7.68;;
32393;SDS011;18853;45.426;9.206;2023-07-20T10:00:18;12.60;;;8.20;;
32393;SDS011;18853;45.426;9.206;2023-07-20T10:02:45;9.52;;;7.18;;
32393;SDS011;18853;45.426;9.206;2023-07-20T10:05:12;13.32;;;7.93;;
32393;SDS011;18853;45.426;9.206;2023-07-20T10:07:49;9.73;;;6.38;;
32393;SDS011;18853;45.426;9.206;2023-07-20T10:10:16;10.85;;;6.75;;
32393;SDS011;18853;45.426;9.206;2023-07-20T10:12:43;13.48;;;7.72;;
32393;SDS011;18853;45.426;9.206;2023-07-20T10:20:28;11.68;;;7.72;;
32393;SDS011;18853;45.426;9.206;2023-07-20T10:22:57;12.77;;;7.68;;
32393;SDS011;18853;45.426;9.206;2023-07-20T10:25:23;13.50;;;7.72;;
32393;SDS011;18853;45.426;9.206;2023-07-20T10:27:49;12.30;;;7.68;;
32393;SDS011;18853;45.426;9.206;2023-07-20T10:30:16;13.25;;;7.78;;
32393;SDS011;18853;45.426;9.206;2023-07-20T10:32:44;14.00;;;8.32;;
32393;SDS011;18853;45.426;9.206;2023-07-20T10:35:17;12.63;;;8.63;;
32393;SDS011;18853;45.426;9.206;2023-07-20T10:43:06;12.80;;;8.15;;
32393;SDS011;18853;45.426;9.206;2023-07-20T10:45:34;11.85;;;7.50;;
32393;SDS011;18853;45.426;9.206;2023-07-20T10:48:17;11.98;;;7.35;;
32393;SDS011;18853;45.426;9.206;2023-07-20T10:53:39;10.07;;;7.05;;
32393;SDS011;18853;45.426;9.206;2023-07-20T10:56:15;11.27;;;7.05;;
32393;SDS011;18853;45.426;9.206;2023-07-20T10:58:44;10.13;;;6.72;;
32393;SDS011;18853;45.426;9.206;2023-07-20T11:01:13;11.63;;;7.03;;
32393;SDS011;18853;45.426;9.206;2023-07-20T11:03:41;9.18;;;6.25;;
32393;SDS011;18853;45.426;9.206;2023-07-20T11:09:11;12.88;;;7.38;;
32393;SDS011;18853;45.426;9.206;2023-07-20T11:11:50;11.00;;;6.45;;
32393;SDS011;18853;45.426;9.206;2023-07-20T11:14:22;12.13;;;7.03;;
32393;SDS011;18853;45.426;9.206;2023-07-20T11:16:50;12.02;;;6.38;;
32393;SDS011;18853;45.426;9.206;2023-07-20T11:19:17;8.52;;;6.60;;
32393;SDS011;18853;45.426;9.206;2023-07-20T11:21:53;14.95;;;8.00;;
32393;SDS011;18853;45.426;9.206;2023-07-20T11:24:20;12.23;;;7.05;;
32393;SDS011;18853;45.426;9.206;2023-07-20T11:29:13;12.77;;;8.23;;
32393;SDS011;18853;45.426;9.206;2023-07-20T11:31:41;12.30;;;7.53;;
32393;SDS011;18853;45.426;9.206;2023-07-20T11:34:09;10.40;;;6.50;;
32393;SDS011;18853;45.426;9.206;2023-07-20T11:36:40;14.20;;;7.60;;
32393;SDS011;18853;45.426;9.206;2023-07-20T11:39:08;12.60;;;7.68;;
32393;SDS011;18853;45.426;9.206;2023-07-20T11:41:34;11.20;;;7.60;;
32393;SDS011;18853;45.426;9.206;2023-07-20T11:44:00;14.23;;;7.03;;
32393;SDS011;18853;45.426;9.206;2023-07-20T11:46:27;11.75;;;6.95;;
32393;SDS011;18853;45.426;9.206;2023-07-20T11:48:57;10.50;;;6.60;;
32393;SDS011;18853;45.426;9.206;2023-07-20T11:51:29;12.75;;;7.55;;
32393;SDS011;18853;45.426;9.206;2023-07-20T11:53:56;10.55;;;6.38;;
32393;SDS011;18853;45.426;9.206;2023-07-20T11:56:23;12.68;;;6.70;;
32393;SDS011;18853;45.426;9.206;2023-07-20T11:58:49;10.85;;;6.28;;
32393;SDS011;18853;45.426;9.206;2023-07-20T12:01:15;13.85;;;6.70;;
32393;SDS011;18853;45.426;9.206;2023-07-20T12:03:42;15.73;;;8.07;;
32393;SDS011;18853;45.426;9.206;2023-07-20T12:06:12;27.23;;;14.02;;
32393;SDS011;18853;45.426;9.206;2023-07-20T12:08:42;23.15;;;11.95;;
32393;SDS011;18853;45.426;9.206;2023-07-20T12:11:09;19.00;;;12.75;;
32393;SDS011;18853;45.426;9.206;2023-07-20T12:13:44;28.05;;;18.13;;
32393;SDS011;18853;45.426;9.206;2023-07-20T12:16:13;12.65;;;9.15;;
32393;SDS011;18853;45.426;9.206;2023-07-20T12:18:40;27.48;;;19.35;;
32393;SDS011;18853;45.426;9.206;2023-07-20T12:21:07;17.63;;;9.65;;
32393;SDS011;18853;45.426;9.206;2023-07-20T12:23:40;18.95;;;14.50;;
32393;SDS011;18853;45.426;9.206;2023-07-20T12:26:07;23.15;;;14.68;;
32393;SDS011;18853;45.426;9.206;2023-07-20T12:28:40;26.77;;;17.67;;
32393;SDS011;18853;45.426;9.206;2023-07-20T12:31:07;18.80;;;14.48;;
32393;SDS011;18853;45.426;9.206;2023-07-20T12:33:33;15.57;;;9.65;;
32393;SDS011;18853;45.426;9.206;2023-07-20T12:35:59;12.80;;;7.60;;
32393;SDS011;18853;45.426;9.206;2023-07-20T12:38:26;14.18;;;10.05;;
32393;SDS011;18853;45.426;9.206;2023-07-20T12:40:53;18.70;;;13.98;;
32393;SDS011;18853;45.426;9.206;2023-07-20T12:43:23;14.43;;;9.88;;
32393;SDS011;18853;45.426;9.206;2023-07-20T12:45:49;16.55;;;8.27;;
32393;SDS011;18853;45.426;9.206;2023-07-20T12:48:14;17.15;;;7.55;;
32393;SDS011;18853;45.426;9.206;2023-07-20T12:50:40;11.63;;;8.07;;
32393;SDS011;18853;45.426;9.206;2023-07-20T12:53:06;13.07;;;9.38;;
32393;SDS011;18853;45.426;9.206;2023-07-20T12:55:32;15.75;;;7.90;;
32393;SDS011;18853;45.426;9.206;2023-07-20T12:57:57;12.48;;;6.97;;
32393;SDS011;18853;45.426;9.206;2023-07-20T13:00:23;13.48;;;8.98;;
32393;SDS011;18853;45.426;9.206;2023-07-20T13:02:49;12.52;;;7.53;;
32393;SDS011;18853;45.426;9.206;2023-07-20T13:05:15;15.13;;;7.40;;
32393;SDS011;18853;45.426;9.206;2023-07-20T13:07:41;17.33;;;7.75;;
32393;SDS011;18853;45.426;9.206;2023-07-20T13:10:07;11.48;;;6.95;;
32393;SDS011;18853;45.426;9.206;2023-07-20T13:12:34;10.65;;;6.82;;
32393;SDS011;18853;45.426;9.206;2023-07-20T13:15:02;9.32;;;6.65;;
32393;SDS011;18853;45.426;9.206;2023-07-20T13:17:30;14.90;;;6.95;;
32393;SDS011;18853;45.426;9.206;2023-07-20T13:20:00;12.60;;;7.00;;
32393;SDS011;18853;45.426;9.206;2023-07-20T13:22:26;11.10;;;6.78;;
32393;SDS011;18853;45.426;9.206;2023-07-20T13:24:52;10.32;;;6.50;;
32393;SDS011;18853;45.426;9.206;2023-07-20T13:27:18;11.60;;;6.68;;
32393;SDS011;18853;45.426;9.206;2023-07-20T13:29:44;12.15;;;6.82;;
32393;SDS011;18853;45.426;9.206;2023-07-20T13:32:12;10.85;;;6.35;;
32393;SDS011;18853;45.426;9.206;2023-07-20T13:34:40;10.85;;;6.35;;
32393;SDS011;18853;45.426;9.206;2023-07-20T13:37:05;10.80;;;5.72;;
32393;SDS011;18853;45.426;9.206;2023-07-20T13:39:31;10.65;;;6.35;;
32393;SDS011;18853;45.426;9.206;2023-07-20T13:41:57;10.45;;;6.30;;
32393;SDS011;18853;45.426;9.206;2023-07-20T13:44:22;11.95;;;6.43;;
32393;SDS011;18853;45.426;9.206;2023-07-20T13:46:48;9.95;;;6.05;;
32393;SDS011;18853;45.426;9.206;2023-07-20T13:49:14;13.18;;;5.88;;
32393;SDS011;18853;45.426;9.206;2023-07-20T13:51:43;10.85;;;5.82;;
32393;SDS011;18853;45.426;9.206;2023-07-20T13:54:09;9.43;;;5.93;;
32393;SDS011;18853;45.426;9.206;2023-07-20T13:56:35;11.68;;;6.40;;
32393;SDS011;18853;45.426;9.206;2023-07-20T13:59:01;10.35;;;6.75;;
32393;SDS011;18853;45.426;9.206;2023-07-20T14:01:26;8.77;;;5.95;;
32393;SDS011;18853;45.426;9.206;2023-07-20T14:03:54;10.88;;;6.72;;
32393;SDS011;18853;45.426;9.206;2023-07-20T14:06:20;11.15;;;5.97;;
32393;SDS011;18853;45.426;9.206;2023-07-20T14:08:46;12.38;;;6.30;;
32393;SDS011;18853;45.426;9.206;2023-07-20T14:11:13;11.30;;;6.72;;
32393;SDS011;18853;45.426;9.206;2023-07-20T14:13:39;12.02;;;6.28;;
32393;SDS011;18853;45.426;9.206;2023-07-20T14:16:05;10.13;;;6.45;;
32393;SDS011;18853;45.426;9.206;2023-07-20T14:18:31;8.48;;;6.20;;
32393;SDS011;18853;45.426;9.206;2023-07-20T14:20:57;11.15;;;6.25;;
32393;SDS011;18853;45.426;9.206;2023-07-20T14:23:22;11.43;;;6.65;;
32393;SDS011;18853;45.426;9.206;2023-07-20T14:25:49;10.23;;;6.32;;
32393;SDS011;18853;45.426;9.206;2023-07-20T14:28:15;12.60;;;6.97;;
32393;SDS011;18853;45.426;9.206;2023-07-20T14:30:41;17.55;;;6.78;;
32393;SDS011;18853;45.426;9.206;2023-07-20T14:33:06;11.10;;;6.50;;
32393;SDS011;18853;45.426;9.206;2023-07-20T14:35:33;10.48;;;6.32;;
32393;SDS011;18853;45.426;9.206;2023-07-20T14:37:59;11.30;;;6.20;;
32393;SDS011;18853;45.426;9.206;2023-07-20T14:40:26;10.95;;;6.53;;
32393;SDS011;18853;45.426;9.206;2023-07-20T14:42:52;9.05;;;5.97;;
32393;SDS011;18853;45.426;9.206;2023-07-20T14:45:17;9.35;;;6.00;;
32393;SDS011;18853;45.426;9.206;2023-07-20T14:47:43;12.48;;;6.13;;
32393;SDS011;18853;45.426;9.206;2023-07-20T14:50:10;8.30;;;5.32;;
32393;SDS011;18853;45.426;9.206;2023-07-20T14:52:36;11.73;;;5.53;;
32393;SDS011;18853;45.426;9.206;2023-07-20T14:55:02;9.07;;;5.70;;
32393;SDS011;18853;45.426;9.206;2023-07-20T14:57:28;8.38;;;5.53;;
32393;SDS011;18853;45.426;9.206;2023-07-20T14:59:54;9.95;;;5.68;;
32393;SDS011;18853;45.426;9.206;2023-07-20T15:02:19;8.50;;;5.57;;
32393;SDS011;18853;45.426;9.206;2023-07-20T15:04:49;10.23;;;5.88;;
32393;SDS011;18853;45.426;9.206;2023-07-20T15:07:19;11.73;;;5.82;;
32393;SDS011;18853;45.426;9.206;2023-07-20T15:09:47;8.05;;;5.43;;